Time;durP1;ratioP1;P1;durP2;ratioP2;P2;SDS_P1;SDS_P2;PMS_P1;PMS_P2;Temp;Humidity;BMP_temperature;BMP_pressure;BME280_temperature;BME280_humidity;BME280_pressure;Samples;Min_cycle;Max_cycle;Signal;HPM_P1;HPM_P2
2023/01/14 00:01:44;;;;;;;3.92;1.70;;;;;;;;;;10389439;28;20050;-78
2023/01/14 00:06:45;;;;;;;6.15;1.60;;;;;;;;;;10424553;28;20063;-77
2023/01/14 00:11:48;;;;;;;7.20;1.88;;;;;;;;;;10458856;28;20505;-78
2023/01/14 00:16:52;;;;;;;5.15;1.80;;;;;;;;;;10437051;28;20459;-77
2023/01/14 00:21:55;;;;;;;3.40;1.50;;;;;;;;;;10443095;28;20041;-78
2023/01/14 00:26:57;;;;;;;8.45;1.65;;;;;;;;;;10440278;28;20049;-79
2023/01/14 00:31:59;;;;;;;4.88;1.38;;;;;;;;;;10444504;28;20071;-78
2023/01/14 00:37:01;;;;;;;5.82;1.50;;;;;;;;;;10451176;28;20056;-77
2023/01/14 00:42:06;;;;;;;5.10;1.80;;;;;;;;;;10412507;28;20641;-79
2023/01/14 00:47:13;;;;;;;8.95;2.03;;;;;;;;;;10432694;28;20159;-80
2023/01/14 00:52:14;;;;;;;;;;;;;;;;;;10461039;28;20048;-77
2023/01/14 00:57:15;;;;;;;5.82;2.13;;;;;;;;;;10440863;28;20426;-79
2023/01/14 01:02:16;;;;;;;9.15;2.25;;;;;;;;;;10443424;28;20059;-78
2023/01/14 01:07:16;;;;;;;6.32;1.88;;;;;;;;;;10451566;28;20059;-78
2023/01/14 01:12:17;;;;;;;7.53;2.20;;;;;;;;;;10487601;28;20055;-78
2023/01/14 01:17:19;;;;;;;9.45;2.65;;;;;;;;;;10459553;28;20047;-79
2023/01/14 01:22:20;;;;;;;5.43;2.00;;;;;;;;;;10451048;28;20064;-78
2023/01/14 01:27:23;;;;;;;9.68;2.30;;;;;;;;;;10429153;28;20682;-80
2023/01/14 01:32:26;;;;;;;4.35;1.88;;;;;;;;;;10477622;28;20044;-78
2023/01/14 01:37:27;;;;;;;5.82;1.92;;;;;;;;;;10471618;28;20040;-79
2023/01/14 01:42:33;;;;;;;9.50;2.30;;;;;;;;;;10439614;28;20045;-80
2023/01/14 01:47:34;;;;;;;3.25;1.63;;;;;;;;;;10461138;28;20041;-79
2023/01/14 01:52:36;;;;;;;4.83;1.70;;;;;;;;;;10456997;28;20040;-79
2023/01/14 01:57:38;;;;;;;6.38;1.75;;;;;;;;;;10460943;28;20284;-80
2023/01/14 02:02:39;;;;;;;7.28;1.90;;;;;;;;;;10448425;28;20466;-80
2023/01/14 02:07:39;;;;;;;7.18;1.85;;;;;;;;;;10429428;28;20066;-79
2023/01/14 02:12:47;;;;;;;5.63;1.90;;;;;;;;;;10456489;28;20083;-81
2023/01/14 02:18:02;;;;;;;6.32;1.83;;;;;;;;;;10456812;28;20037;-82
2023/01/14 02:23:24;;;;;;;7.32;2.38;;;;;;;;;;10506482;28;20057;-80
2023/01/14 02:28:31;;;;;;;6.93;2.00;;;;;;;;;;10471645;28;20044;-80
2023/01/14 02:33:35;;;;;;;9.10;2.58;;;;;;;;;;10451539;28;20052;-81
2023/01/14 02:38:50;;;;;;;5.05;1.77;;;;;;;;;;10470164;28;20541;-80
2023/01/14 02:44:08;;;;;;;11.15;2.20;;;;;;;;;;10441913;28;20049;-79
2023/01/14 02:49:12;;;;;;;7.28;2.45;;;;;;;;;;10423124;28;20049;-79
2023/01/14 02:54:17;;;;;;;8.40;2.58;;;;;;;;;;10445801;28;20047;-80
2023/01/14 02:59:22;;;;;;;6.40;2.10;;;;;;;;;;10464706;28;20846;-79
2023/01/14 03:04:30;;;;;;;7.47;2.10;;;;;;;;;;10443335;28;20049;-78
2023/01/14 03:09:51;;;;;;;8.57;2.30;;;;;;;;;;10436402;28;20045;-78
2023/01/14 03:15:03;;;;;;;11.50;2.78;;;;;;;;;;10445605;28;20049;-79
2023/01/14 03:20:16;;;;;;;7.43;2.00;;;;;;;;;;10439576;28;20044;-79
2023/01/14 03:25:18;;;;;;;9.10;3.13;;;;;;;;;;10453556;28;20045;-79
2023/01/14 03:30:24;;;;;;;10.88;2.60;;;;;;;;;;10442948;28;20079;-78
2023/01/14 03:35:26;;;;;;;5.55;2.08;;;;;;;;;;10452116;28;20116;-78
2023/01/14 03:40:28;;;;;;;8.07;2.03;;;;;;;;;;10458659;28;20045;-78
2023/01/14 03:45:29;;;;;;;6.60;1.70;;;;;;;;;;10439310;28;20037;-78
2023/01/14 03:50:50;;;;;;;9.40;2.90;;;;;;;;;;10445259;28;20048;-80
2023/01/14 03:55:55;;;;;;;10.50;2.10;;;;;;;;;;10432721;28;20087;-80
2023/01/14 04:00:58;;;;;;;10.75;2.05;;;;;;;;;;10459150;28;20067;-81
2023/01/14 04:05:59;;;;;;;10.13;2.03;;;;;;;;;;10458433;28;20063;-78
2023/01/14 04:11:01;;;;;;;7.20;2.10;;;;;;;;;;10445041;28;20152;-78
2023/01/14 04:16:03;;;;;;;8.52;2.03;;;;;;;;;;10463698;28;20087;-80
2023/01/14 04:21:03;;;;;;;7.35;1.90;;;;;;;;;;10464883;28;20047;-78
2023/01/14 04:26:05;;;;;;;9.25;2.65;;;;;;;;;;10430320;28;20059;-79
2023/01/14 04:31:07;;;;;;;7.40;1.95;;;;;;;;;;10433056;28;20056;-78
2023/01/14 04:36:08;;;;;;;5.10;2.00;;;;;;;;;;10433356;28;20100;-79
2023/01/14 04:42:26;;;;;;;6.88;1.90;;;;;;;;;;10460765;28;20139;-81
2023/01/14 04:46:29;;;;;;;5.22;2.00;;;;;;;;;;10507767;28;20029;-77
2023/01/14 04:51:30;;;;;;;13.95;2.33;;;;;;;;;;10483936;28;20091;-79
2023/01/14 04:56:30;;;;;;;8.88;1.77;;;;;;;;;;10462822;28;20132;-76
2023/01/14 05:01:30;;;;;;;9.43;2.45;;;;;;;;;;10459779;28;20056;-78
2023/01/14 05:06:33;;;;;;;9.00;2.00;;;;;;;;;;10448953;28;20145;-79
2023/01/14 05:11:35;;;;;;;10.13;2.75;;;;;;;;;;10445854;28;20754;-78
2023/01/14 05:16:37;;;;;;;7.57;1.85;;;;;;;;;;10461200;28;20079;-78
2023/01/14 05:21:38;;;;;;;9.13;2.58;;;;;;;;;;10455683;28;20044;-79
2023/01/14 05:26:40;;;;;;;10.82;2.58;;;;;;;;;;10453079;28;20055;-78
2023/01/14 05:31:40;;;;;;;9.90;1.92;;;;;;;;;;10472974;28;20041;-80
2023/01/14 05:36:41;;;;;;;7.13;1.75;;;;;;;;;;10487320;28;20146;-81
2023/01/14 05:45:37;;;;;;;9.00;2.70;;;;;;;;;;10438654;28;20084;-81
2023/01/14 05:47:03;;;;;;;5.35;2.35;;;;;;;;;;10453891;28;20080;-79
2023/01/14 05:52:03;;;;;;;6.28;2.67;;;;;;;;;;10452704;28;20387;-80
2023/01/14 05:57:10;;;;;;;9.02;2.10;;;;;;;;;;10448995;28;20494;-79
2023/01/14 06:07:32;;;;;;;10.30;2.30;;;;;;;;;;10481197;28;20091;-78
2023/01/14 06:12:57;;;;;;;8.03;2.03;;;;;;;;;;10465425;28;20052;-77
2023/01/14 06:17:58;;;;;;;5.78;1.73;;;;;;;;;;10453405;28;20287;-78
2023/01/14 06:22:59;;;;;;;4.85;1.70;;;;;;;;;;10458433;28;20041;-78
2023/01/14 06:28:01;;;;;;;8.07;2.50;;;;;;;;;;10437423;28;20110;-77
2023/01/14 06:33:03;;;;;;;5.50;1.85;;;;;;;;;;10443387;28;20056;-78
2023/01/14 06:38:05;;;;;;;9.75;2.10;;;;;;;;;;10454685;28;20541;-78
2023/01/14 06:43:06;;;;;;;6.93;2.00;;;;;;;;;;10437330;28;20131;-77
2023/01/14 06:48:07;;;;;;;9.18;2.13;;;;;;;;;;10454113;28;20877;-79
2023/01/14 06:53:07;;;;;;;7.15;2.20;;;;;;;;;;10458976;28;20135;-77
2023/01/14 06:58:07;;;;;;;6.30;2.33;;;;;;;;;;10459511;28;20036;-78
2023/01/14 07:03:09;;;;;;;3.40;2.03;;;;;;;;;;10464825;28;20297;-77
2023/01/14 07:08:12;;;;;;;8.88;2.28;;;;;;;;;;10507206;28;20063;-77
2023/01/14 07:13:12;;;;;;;7.22;1.98;;;;;;;;;;10484679;28;20047;-77
2023/01/14 07:18:13;;;;;;;6.78;2.28;;;;;;;;;;10464568;28;20037;-76
2023/01/14 07:23:14;;;;;;;4.03;1.80;;;;;;;;;;10451853;28;20502;-78
2023/01/14 07:28:14;;;;;;;5.45;1.92;;;;;;;;;;10448555;28;20118;-77
2023/01/14 07:33:15;;;;;;;8.30;2.17;;;;;;;;;;10426161;28;20486;-76
2023/01/14 07:38:15;;;;;;;3.70;2.10;;;;;;;;;;10423864;28;20195;-76
2023/01/14 07:43:16;;;;;;;5.32;1.92;;;;;;;;;;10451651;28;20389;-77
2023/01/14 07:48:17;;;;;;;7.75;2.20;;;;;;;;;;10414884;28;20500;-77
2023/01/14 07:53:17;;;;;;;3.75;1.67;;;;;;;;;;10452175;28;20108;-78
2023/01/14 07:58:17;;;;;;;7.03;2.37;;;;;;;;;;10455752;28;20098;-77
2023/01/14 08:03:18;;;;;;;4.40;1.92;;;;;;;;;;10456827;28;20290;-76
2023/01/14 08:08:19;;;;;;;9.20;2.17;;;;;;;;;;10467834;28;20514;-76
2023/01/14 08:13:20;;;;;;;6.25;2.03;;;;;;;;;;10440972;28;20057;-77
2023/01/14 08:18:20;;;;;;;4.47;1.60;;;;;;;;;;10445737;28;20389;-78
2023/01/14 08:23:20;;;;;;;10.18;1.77;;;;;;;;;;10467879;28;20404;-78
2023/01/14 08:28:21;;;;;;;6.13;1.93;;;;;;;;;;10444100;28;20144;-77
2023/01/14 08:33:22;;;;;;;4.53;1.47;;;;;;;;;;10460239;28;20315;-77
2023/01/14 08:38:22;;;;;;;4.78;1.70;;;;;;;;;;10436404;28;20828;-79
2023/01/14 08:43:23;;;;;;;4.63;2.23;;;;;;;;;;10439370;28;20109;-77
2023/01/14 08:48:26;;;;;;;9.17;1.80;;;;;;;;;;10446856;28;20295;-75
2023/01/14 08:53:30;;;;;;;4.80;1.30;;;;;;;;;;10458734;28;20063;-79
2023/01/14 08:58:31;;;;;;;3.53;1.85;;;;;;;;;;10463532;28;20040;-80
2023/01/14 09:03:32;;;;;;;3.13;1.60;;;;;;;;;;10451606;28;20045;-76
2023/01/14 09:19:12;;;;;;;3.22;1.40;;;;;;;;;;10439071;28;20085;-75
2023/01/14 09:24:13;;;;;;;4.05;1.92;;;;;;;;;;10464598;28;20482;-77
2023/01/14 09:29:14;;;;;;;3.67;1.42;;;;;;;;;;10469130;28;20056;-76
2023/01/14 09:34:15;;;;;;;6.25;1.90;;;;;;;;;;10498175;28;20064;-79
2023/01/14 09:39:16;;;;;;;5.43;1.50;;;;;;;;;;10449896;28;20064;-81
2023/01/14 09:44:19;;;;;;;5.57;1.90;;;;;;;;;;10467398;28;20033;-81
2023/01/14 09:49:22;;;;;;;4.55;1.45;;;;;;;;;;10469289;28;20069;-80
2023/01/14 09:54:36;;;;;;;5.60;2.08;;;;;;;;;;10473091;28;20052;-79
2023/01/14 09:59:40;;;;;;;6.68;1.95;;;;;;;;;;10485479;28;20056;-78
2023/01/14 10:05:10;;;;;;;5.65;1.77;;;;;;;;;;10492400;28;20059;-79
2023/01/14 10:10:31;;;;;;;4.22;1.70;;;;;;;;;;10466084;28;20045;-81
2023/01/14 10:15:36;;;;;;;7.18;1.83;;;;;;;;;;10467655;28;20081;-77
2023/01/14 10:20:56;;;;;;;9.50;2.10;;;;;;;;;;10455531;28;20045;-80
2023/01/14 10:25:57;;;;;;;6.07;2.35;;;;;;;;;;10435642;28;20091;-80
2023/01/14 10:30:59;;;;;;;3.28;1.90;;;;;;;;;;10460517;28;20164;-82
2023/01/14 10:36:04;;;;;;;3.97;1.70;;;;;;;;;;10436471;28;20077;-80
2023/01/14 10:41:06;;;;;;;6.57;1.90;;;;;;;;;;10443378;28;20037;-78
2023/01/14 10:46:06;;;;;;;4.40;2.22;;;;;;;;;;10454955;28;20048;-78
2023/01/14 10:51:25;;;;;;;7.00;2.17;;;;;;;;;;10446359;28;20373;-79
2023/01/14 10:56:27;;;;;;;3.35;1.80;;;;;;;;;;10424469;28;20050;-78
2023/01/14 11:01:27;;;;;;;6.28;1.85;;;;;;;;;;10451396;28;20048;-81
2023/01/14 11:06:35;;;;;;;7.00;2.03;;;;;;;;;;10482724;28;20053;-80
2023/01/14 11:11:40;;;;;;;5.45;2.15;;;;;;;;;;10412827;28;20375;-80
2023/01/14 11:16:40;;;;;;;8.35;2.50;;;;;;;;;;10440931;28;20045;-81
2023/01/14 11:21:44;;;;;;;7.87;2.80;;;;;;;;;;10453492;28;20048;-80
2023/01/14 11:26:45;;;;;;;6.25;1.55;;;;;;;;;;10465154;28;20340;-80
2023/01/14 11:31:47;;;;;;;4.18;1.30;;;;;;;;;;10449967;28;20059;-81
2023/01/14 11:36:47;;;;;;;4.95;2.10;;;;;;;;;;10478526;28;20045;-84
2023/01/14 11:41:48;;;;;;;5.93;1.70;;;;;;;;;;10456410;28;20048;-83
2023/01/14 11:47:11;;;;;;;6.07;1.65;;;;;;;;;;10482017;28;20072;-79
2023/01/14 11:52:18;;;;;;;6.03;1.92;;;;;;;;;;10489449;28;20109;-80
2023/01/14 11:57:21;;;;;;;6.72;2.28;;;;;;;;;;10482424;28;20037;-79
2023/01/14 12:02:24;;;;;;;5.97;1.90;;;;;;;;;;10445509;28;20041;-80
2023/01/14 12:07:37;;;;;;;4.03;1.40;;;;;;;;;;10452729;28;20287;-80
2023/01/14 12:18:13;;;;;;;3.38;1.67;;;;;;;;;;10449413;28;20505;-81
2023/01/14 12:23:17;;;;;;;4.05;2.05;;;;;;;;;;10451191;28;20033;-79
2023/01/14 12:28:18;;;;;;;2.65;1.92;;;;;;;;;;10420267;28;20458;-80
2023/01/14 12:33:31;;;;;;;5.75;1.73;;;;;;;;;;10452509;28;20132;-80
2023/01/14 12:49:39;;;;;;;5.40;1.60;;;;;;;;;;10498312;28;20033;-79
2023/01/14 12:54:41;;;;;;;3.42;1.42;;;;;;;;;;10464547;28;20652;-78
2023/01/14 12:59:44;;;;;;;;;;;;;;;;;;10453750;28;20076;-79
2023/01/14 13:04:46;;;;;;;3.33;1.70;;;;;;;;;;10434142;28;19939;-79
2023/01/14 13:09:48;;;;;;;3.47;1.65;;;;;;;;;;10457830;28;20053;-80
2023/01/14 13:14:58;;;;;;;3.78;1.58;;;;;;;;;;10445917;28;20143;-79
2023/01/14 13:20:24;;;;;;;5.30;1.80;;;;;;;;;;10458513;28;20045;-80
2023/01/14 13:25:34;;;;;;;5.65;1.70;;;;;;;;;;10420486;28;20049;-79
2023/01/14 13:30:56;;;;;;;4.55;2.17;;;;;;;;;;10451276;28;20119;-79
2023/01/14 13:36:05;;;;;;;7.18;2.00;;;;;;;;;;10450176;28;20053;-80
2023/01/14 13:41:07;;;;;;;4.95;1.80;;;;;;;;;;10456090;28;20067;-79
2023/01/14 13:46:14;;;;;;;3.38;1.70;;;;;;;;;;10438158;28;20050;-80
2023/01/14 13:51:15;;;;;;;5.95;2.30;;;;;;;;;;10459279;28;20067;-80
2023/01/14 13:56:20;;;;;;;3.50;1.80;;;;;;;;;;10438069;28;20049;-79
2023/01/14 14:01:25;;;;;;;4.15;1.98;;;;;;;;;;10480396;28;20039;-83
2023/01/14 14:06:30;;;;;;;5.55;1.80;;;;;;;;;;10478287;28;20028;-85
2023/01/14 14:11:37;;;;;;;4.80;1.80;;;;;;;;;;10510143;28;20052;-85
2023/01/14 14:16:40;;;;;;;4.43;1.60;;;;;;;;;;10468339;28;20040;-81
2023/01/14 14:22:00;;;;;;;3.47;1.80;;;;;;;;;;10489277;28;20045;-81
2023/01/14 14:27:06;;;;;;;5.35;1.98;;;;;;;;;;10456154;28;20084;-80
2023/01/14 14:32:14;;;;;;;4.28;1.98;;;;;;;;;;10466494;28;20043;-80
2023/01/14 14:37:20;;;;;;;3.20;1.60;;;;;;;;;;10465286;28;20140;-80
2023/01/14 14:42:25;;;;;;;3.65;1.65;;;;;;;;;;10439146;28;20052;-83
2023/01/14 14:47:30;;;;;;;4.10;1.80;;;;;;;;;;10455210;28;20473;-82
2023/01/14 14:52:36;;;;;;;6.70;1.98;;;;;;;;;;10469135;28;20049;-81
2023/01/14 14:57:39;;;;;;;5.50;2.85;;;;;;;;;;10464206;28;20054;-80
2023/01/14 15:02:40;;;;;;;4.63;1.90;;;;;;;;;;10445723;28;20071;-81
2023/01/14 15:07:41;;;;;;;4.40;1.98;;;;;;;;;;10470591;28;20029;-86
2023/01/14 15:12:44;;;;;;;3.30;1.58;;;;;;;;;;10475268;28;20120;-83
2023/01/14 15:17:45;;;;;;;3.47;1.60;;;;;;;;;;10463515;28;20546;-81
2023/01/14 15:22:47;;;;;;;5.18;1.98;;;;;;;;;;10438688;28;20060;-83
2023/01/14 15:27:50;;;;;;;5.97;2.05;;;;;;;;;;10431857;28;20049;-83
2023/01/14 15:32:53;;;;;;;6.10;2.13;;;;;;;;;;10477692;28;20121;-82
2023/01/14 15:37:55;;;;;;;4.55;2.30;;;;;;;;;;10451436;28;20060;-81
2023/01/14 15:42:56;;;;;;;7.07;3.27;;;;;;;;;;10459132;28;20048;-81
2023/01/14 15:47:58;;;;;;;5.03;2.13;;;;;;;;;;10432066;28;20055;-80
2023/01/14 15:53:14;;;;;;;5.50;2.92;;;;;;;;;;10431809;28;20057;-79
2023/01/14 15:58:45;;;;;;;7.03;3.28;;;;;;;;;;10450368;28;20068;-78
2023/01/14 16:03:46;;;;;;;5.80;3.45;;;;;;;;;;10453291;28;20059;-80
2023/01/14 16:08:47;;;;;;;6.28;2.85;;;;;;;;;;10465461;28;20037;-80
2023/01/14 16:13:48;;;;;;;5.82;2.80;;;;;;;;;;10429344;28;20056;-82
2023/01/14 16:18:54;;;;;;;6.88;2.80;;;;;;;;;;10437080;28;20052;-79
2023/01/14 16:23:54;;;;;;;3.17;1.90;;;;;;;;;;10448160;28;20065;-79
2023/01/14 16:28:55;;;;;;;4.72;2.05;;;;;;;;;;10460421;28;20128;-79
2023/01/14 16:33:56;;;;;;;3.22;2.10;;;;;;;;;;10478491;28;20040;-80
2023/01/14 16:38:58;;;;;;;4.65;2.08;;;;;;;;;;10501007;28;20037;-81
2023/01/14 16:43:58;;;;;;;2.90;1.95;;;;;;;;;;10484480;28;20481;-80
2023/01/14 16:48:59;;;;;;;5.47;2.37;;;;;;;;;;10450971;28;20096;-80
2023/01/14 16:54:01;;;;;;;4.70;2.25;;;;;;;;;;10463218;28;20368;-81
2023/01/14 16:59:03;;;;;;;2.40;1.88;;;;;;;;;;10451247;28;20044;-78
2023/01/14 17:04:04;;;;;;;2.80;1.98;;;;;;;;;;10461834;28;20053;-81
2023/01/14 17:09:05;;;;;;;4.72;2.10;;;;;;;;;;10440300;28;20116;-80
2023/01/14 17:14:06;;;;;;;3.38;2.15;;;;;;;;;;10459394;28;20049;-79
2023/01/14 17:19:06;;;;;;;4.57;2.03;;;;;;;;;;10460418;28;20072;-79
2023/01/14 17:24:09;;;;;;;4.40;2.60;;;;;;;;;;10458121;28;20108;-78
2023/01/14 17:29:09;;;;;;;3.72;2.45;;;;;;;;;;10454921;28;20302;-79
2023/01/14 17:34:09;;;;;;;5.13;3.22;;;;;;;;;;10444313;28;20045;-77
2023/01/14 17:39:10;;;;;;;6.00;2.73;;;;;;;;;;10466075;28;20048;-81
2023/01/14 17:44:11;;;;;;;3.08;2.10;;;;;;;;;;10460378;28;20326;-79
2023/01/14 17:49:12;;;;;;;5.25;2.40;;;;;;;;;;10450239;28;20445;-80
2023/01/14 17:54:14;;;;;;;3.80;2.75;;;;;;;;;;10438139;28;20049;-78
2023/01/14 17:59:15;;;;;;;4.97;3.10;;;;;;;;;;10456988;28;20083;-79
2023/01/14 18:04:16;;;;;;;5.03;2.95;;;;;;;;;;10456505;28;20049;-78
2023/01/14 18:09:17;;;;;;;4.03;2.40;;;;;;;;;;10459763;28;20053;-81
2023/01/14 18:14:21;;;;;;;5.10;2.97;;;;;;;;;;10470472;28;20518;-82
2023/01/14 18:19:25;;;;;;;4.38;2.85;;;;;;;;;;10511534;28;20078;-82
2023/01/14 18:24:25;;;;;;;4.82;2.53;;;;;;;;;;10483313;28;20065;-80
2023/01/14 18:29:27;;;;;;;5.88;3.13;;;;;;;;;;10460267;28;20145;-81
2023/01/14 18:34:29;;;;;;;4.63;2.77;;;;;;;;;;10462736;28;20050;-87
2023/01/14 18:39:31;;;;;;;4.27;3.37;;;;;;;;;;10454470;28;20041;-76
2023/01/14 18:44:32;;;;;;;5.05;3.20;;;;;;;;;;10458422;28;20049;-78
2023/01/14 18:49:34;;;;;;;4.55;3.00;;;;;;;;;;10452059;28;20075;-77
2023/01/14 18:54:34;;;;;;;6.00;3.30;;;;;;;;;;10436666;28;20099;-76
2023/01/14 18:59:37;;;;;;;5.07;3.55;;;;;;;;;;10481217;28;20044;-76
2023/01/14 19:04:37;;;;;;;9.10;5.10;;;;;;;;;;10487225;28;20087;-76
2023/01/14 19:09:38;;;;;;;9.98;5.60;;;;;;;;;;10437137;28;20045;-77
2023/01/14 19:14:41;;;;;;;8.75;5.07;;;;;;;;;;10451807;28;20420;-78
2023/01/14 19:19:42;;;;;;;5.50;3.75;;;;;;;;;;10435709;28;20053;-79
2023/01/14 19:24:44;;;;;;;4.90;3.47;;;;;;;;;;10441781;28;20063;-77
2023/01/14 19:29:45;;;;;;;5.75;3.75;;;;;;;;;;10460695;28;20483;-78
2023/01/14 19:34:45;;;;;;;5.70;3.57;;;;;;;;;;10435299;28;20049;-80
2023/01/14 19:39:45;;;;;;;5.95;4.03;;;;;;;;;;10435168;28;20311;-78
2023/01/14 19:44:47;;;;;;;5.72;3.13;;;;;;;;;;10442829;28;20094;-79
2023/01/14 19:49:48;;;;;;;4.93;3.40;;;;;;;;;;10461234;28;20484;-79
2023/01/14 19:54:49;;;;;;;5.13;3.72;;;;;;;;;;10444669;28;20082;-79
2023/01/14 19:59:50;;;;;;;4.53;3.00;;;;;;;;;;10466122;28;20058;-78
2023/01/14 20:04:51;;;;;;;4.90;3.17;;;;;;;;;;10448827;28;20076;-80
2023/01/14 20:09:52;;;;;;;6.13;3.20;;;;;;;;;;10465196;28;20049;-78
2023/01/14 20:14:53;;;;;;;4.65;2.50;;;;;;;;;;10474232;28;20056;-80
2023/01/14 20:19:58;;;;;;;3.13;2.35;;;;;;;;;;10477314;28;20246;-80
2023/01/14 20:25:00;;;;;;;4.65;2.58;;;;;;;;;;10467803;28;20502;-77
2023/01/14 20:30:00;;;;;;;4.82;2.08;;;;;;;;;;10447772;28;20132;-76
2023/01/14 20:35:01;;;;;;;3.35;2.05;;;;;;;;;;10480800;28;20057;-76
2023/01/14 20:40:02;;;;;;;4.10;2.40;;;;;;;;;;10472902;28;20045;-80
2023/01/14 20:45:03;;;;;;;3.95;2.47;;;;;;;;;;10480636;28;20131;-77
2023/01/14 20:50:06;;;;;;;3.63;1.88;;;;;;;;;;10448144;28;20533;-77
2023/01/14 20:55:06;;;;;;;3.53;2.00;;;;;;;;;;10485277;28;20052;-77
2023/01/14 21:00:09;;;;;;;2.83;2.00;;;;;;;;;;10466274;28;20156;-78
2023/01/14 21:05:11;;;;;;;2.97;1.73;;;;;;;;;;10463728;28;20048;-77
2023/01/14 21:10:14;;;;;;;3.30;1.70;;;;;;;;;;10463281;28;20423;-75
2023/01/14 21:25:43;;;;;;;4.20;2.10;;;;;;;;;;10488632;28;20044;-77
2023/01/14 21:30:45;;;;;;;4.22;1.90;;;;;;;;;;10473660;28;20307;-77
2023/01/14 21:35:46;;;;;;;3.13;1.85;;;;;;;;;;10448869;28;20060;-77
2023/01/14 21:43:24;;;;;;;2.60;1.90;;;;;;;;;;10484652;28;20079;-78
2023/01/14 21:46:07;;;;;;;3.05;2.20;;;;;;;;;;10466428;28;20072;-76
2023/01/14 21:51:11;;;;;;;3.65;2.00;;;;;;;;;;10462597;28;20465;-77
2023/01/14 21:56:11;;;;;;;2.85;1.70;;;;;;;;;;10447724;28;20069;-75
2023/01/14 22:01:12;;;;;;;2.50;1.63;;;;;;;;;;10469577;28;20036;-76
2023/01/14 22:06:13;;;;;;;2.78;1.70;;;;;;;;;;10433656;28;20057;-75
2023/01/14 22:11:15;;;;;;;2.92;1.50;;;;;;;;;;10428849;28;20075;-77
2023/01/14 22:16:17;;;;;;;3.20;1.60;;;;;;;;;;10449400;28;20545;-76
2023/01/14 22:21:17;;;;;;;2.45;1.52;;;;;;;;;;10451405;28;20158;-77
2023/01/14 22:26:19;;;;;;;2.22;1.58;;;;;;;;;;10443115;28;20484;-77
2023/01/14 22:31:19;;;;;;;4.57;2.75;;;;;;;;;;10449888;28;20056;-76
2023/01/14 22:36:19;;;;;;;2.33;1.50;;;;;;;;;;10445924;28;20181;-77
2023/01/14 22:41:20;;;;;;;2.67;1.80;;;;;;;;;;10453130;28;20302;-79
2023/01/14 22:46:21;;;;;;;3.85;1.90;;;;;;;;;;10458985;28;20283;-75
2023/01/14 22:51:21;;;;;;;2.10;1.90;;;;;;;;;;10451893;28;20134;-77
2023/01/14 22:56:22;;;;;;;2.70;1.60;;;;;;;;;;10453269;28;20048;-77
2023/01/14 23:01:22;;;;;;;2.83;1.80;;;;;;;;;;10431437;28;20655;-76
2023/01/14 23:06:23;;;;;;;2.53;1.65;;;;;;;;;;10460629;28;20755;-78
2023/01/14 23:11:23;;;;;;;2.97;1.65;;;;;;;;;;10438838;28;20478;-76
2023/01/14 23:27:03;;;;;;;3.20;2.03;;;;;;;;;;10451636;28;20132;-79
2023/01/14 23:32:04;;;;;;;6.45;1.40;;;;;;;;;;10452712;28;20044;-78
2023/01/14 23:37:05;;;;;;;2.95;1.50;;;;;;;;;;10452251;28;20123;-79
2023/01/14 23:42:05;;;;;;;1.77;1.30;;;;;;;;;;10439757;28;20049;-77
2023/01/14 23:47:07;;;;;;;2.85;1.50;;;;;;;;;;10463848;28;20052;-76
2023/01/14 23:52:08;;;;;;;2.80;1.70;;;;;;;;;;10481950;28;20096;-77
2023/01/14 23:57:08;;;;;;;2.15;1.30;;;;;;;;;;10448048;28;21016;-79
